Time;durP1;ratioP1;P1;durP2;ratioP2;P2;SDS_P1;SDS_P2;PMS_P1;PMS_P2;Temp;Humidity;BMP_temperature;BMP_pressure;BME280_temperature;BME280_humidity;BME280_pressure;Samples;Min_cycle;Max_cycle;Signal;HPM_P1;HPM_P2
2023/04/15 00:01:59;;;;;;;0.10;0.10;;;;;;;;;;5009671;28;20029;-76
2023/04/15 00:04:25;;;;;;;0.10;0.10;;;;;;;;;;5000856;28;20081;-77
2023/04/15 00:06:52;;;;;;;0.47;0.47;;;;;;;;;;4978591;28;20118;-77
2023/04/15 00:09:18;;;;;;;0.10;0.10;;;;;;;;;;4996036;28;20104;-77
2023/04/15 00:11:44;;;;;;;3.00;2.70;;;;;;;;;;4962537;28;20030;-79
2023/04/15 00:14:09;;;;;;;0.20;0.20;;;;;;;;;;4978408;28;20045;-77
2023/04/15 00:16:35;;;;;;;0.13;0.13;;;;;;;;;;4977921;28;20077;-77
2023/04/15 00:19:00;;;;;;;0.90;0.90;;;;;;;;;;4996031;28;20084;-76
2023/04/15 00:21:27;;;;;;;0.13;0.13;;;;;;;;;;4995848;28;20028;-76
2023/04/15 00:23:53;;;;;;;0.15;0.15;;;;;;;;;;4996031;28;20073;-78
2023/04/15 00:26:19;;;;;;;3.20;1.45;;;;;;;;;;4995777;28;20461;-76
2023/04/15 00:28:46;;;;;;;0.35;0.35;;;;;;;;;;4962746;28;20128;-76
2023/04/15 00:31:13;;;;;;;0.10;0.10;;;;;;;;;;4995975;28;20118;-77
2023/04/15 00:33:39;;;;;;;0.20;0.20;;;;;;;;;;4995850;28;20038;-75
2023/04/15 00:36:05;;;;;;;0.10;0.10;;;;;;;;;;4995737;28;20065;-77
2023/04/15 00:38:30;;;;;;;0.10;0.10;;;;;;;;;;5014908;28;20108;-78
2023/04/15 00:40:56;;;;;;;0.10;0.10;;;;;;;;;;5015285;28;20064;-77
2023/04/15 00:43:22;;;;;;;3.88;0.77;;;;;;;;;;4997815;28;20105;-77
2023/04/15 00:45:47;;;;;;;0.25;0.25;;;;;;;;;;5015271;28;20053;-78
2023/04/15 00:48:13;;;;;;;0.10;0.10;;;;;;;;;;4997615;28;20041;-77
2023/04/15 00:50:39;;;;;;;0.63;0.63;;;;;;;;;;4997456;28;20045;-77
2023/04/15 00:53:05;;;;;;;0.10;0.10;;;;;;;;;;4997303;28;20485;-78
2023/04/15 00:55:30;;;;;;;0.10;0.10;;;;;;;;;;4981082;28;20040;-77
2023/04/15 00:57:56;;;;;;;0.75;0.75;;;;;;;;;;4981317;28;20029;-77
2023/04/15 01:00:22;;;;;;;0.10;0.10;;;;;;;;;;4981107;28;20144;-76
2023/04/15 01:02:48;;;;;;;3.15;2.95;;;;;;;;;;4997317;28;20032;-76
2023/04/15 01:05:16;;;;;;;0.10;0.10;;;;;;;;;;5014749;28;20482;-77
2023/04/15 01:07:41;;;;;;;0.50;0.50;;;;;;;;;;5014811;28;20104;-76
2023/04/15 01:10:07;;;;;;;0.88;0.80;;;;;;;;;;5017210;28;20030;-76
2023/04/15 01:12:33;;;;;;;4.00;2.50;;;;;;;;;;5017957;28;20048;-77
2023/04/15 01:15:01;;;;;;;0.10;0.10;;;;;;;;;;5017012;28;20065;-77
2023/04/15 01:17:27;;;;;;;0.10;0.10;;;;;;;;;;4997172;28;20573;-76
2023/04/15 01:19:54;;;;;;;0.40;0.40;;;;;;;;;;4997267;28;20062;-76
2023/04/15 01:22:20;;;;;;;3.15;1.45;;;;;;;;;;4996399;28;20033;-77
2023/04/15 01:25:01;;;;;;;0.10;0.10;;;;;;;;;;4995904;28;20371;-76
2023/04/15 01:27:26;;;;;;;0.13;0.13;;;;;;;;;;4996642;28;20084;-76
2023/04/15 01:29:52;;;;;;;0.10;0.10;;;;;;;;;;5014558;28;20038;-76
2023/04/15 01:32:18;;;;;;;0.15;0.15;;;;;;;;;;4996881;28;20408;-77
2023/04/15 01:34:43;;;;;;;0.10;0.10;;;;;;;;;;5013237;28;20037;-76
2023/04/15 01:37:09;;;;;;;0.10;0.10;;;;;;;;;;4980294;28;20030;-77
2023/04/15 01:39:34;;;;;;;0.15;0.15;;;;;;;;;;4979538;28;20092;-76
2023/04/15 01:41:59;;;;;;;0.10;0.10;;;;;;;;;;5014292;28;20062;-76
2023/04/15 01:44:25;;;;;;;0.10;0.10;;;;;;;;;;4996575;28;20080;-76
2023/04/15 01:46:50;;;;;;;0.10;0.10;;;;;;;;;;4996514;28;20141;-76
2023/04/15 01:49:16;;;;;;;0.65;0.65;;;;;;;;;;4995871;28;20030;-76
2023/04/15 01:51:41;;;;;;;0.35;0.35;;;;;;;;;;5013874;28;20095;-76
2023/04/15 01:54:06;;;;;;;0.22;0.22;;;;;;;;;;5014130;28;20030;-76
2023/04/15 01:56:32;;;;;;;0.10;0.10;;;;;;;;;;5014048;28;20109;-76
2023/04/15 01:58:57;;;;;;;0.15;0.15;;;;;;;;;;4996374;28;20046;-76
2023/04/15 02:01:23;;;;;;;0.10;0.10;;;;;;;;;;5013991;28;20044;-76
2023/04/15 02:03:49;;;;;;;0.10;0.10;;;;;;;;;;4996293;28;20485;-77
2023/04/15 02:06:14;;;;;;;0.10;0.10;;;;;;;;;;5013673;28;20029;-77
2023/04/15 02:08:40;;;;;;;0.13;0.13;;;;;;;;;;5013917;28;20482;-77
2023/04/15 02:11:06;;;;;;;0.10;0.10;;;;;;;;;;4995543;28;20556;-76
2023/04/15 02:13:32;;;;;;;0.10;0.10;;;;;;;;;;4996329;28;20149;-76
2023/04/15 02:15:58;;;;;;;0.15;0.15;;;;;;;;;;4995980;28;20030;-77
2023/04/15 02:18:23;;;;;;;0.10;0.10;;;;;;;;;;4996042;28;20084;-77
2023/04/15 02:20:50;;;;;;;0.10;0.10;;;;;;;;;;5013467;28;20034;-77
2023/04/15 02:23:15;;;;;;;0.10;0.10;;;;;;;;;;5013379;28;20544;-76
2023/04/15 02:25:42;;;;;;;3.63;1.00;;;;;;;;;;5013780;28;20491;-76
2023/04/15 02:28:08;;;;;;;0.30;0.30;;;;;;;;;;4996119;28;20029;-76
2023/04/15 02:30:33;;;;;;;0.10;0.10;;;;;;;;;;5013309;28;20043;-78
2023/04/15 02:33:01;;;;;;;2.22;0.82;;;;;;;;;;4996252;28;20458;-78
2023/04/15 02:35:26;;;;;;;1.05;0.95;;;;;;;;;;5013477;28;20109;-76
2023/04/15 02:37:52;;;;;;;4.35;0.57;;;;;;;;;;4995747;28;20030;-77
2023/04/15 02:40:17;;;;;;;0.90;0.38;;;;;;;;;;4999859;28;20038;-77
2023/04/15 02:42:44;;;;;;;0.10;0.10;;;;;;;;;;4999977;28;20438;-78
2023/04/15 02:45:12;;;;;;;0.10;0.10;;;;;;;;;;4999728;28;20037;-76
2023/04/15 02:47:40;;;;;;;0.10;0.10;;;;;;;;;;5017234;28;20053;-76
2023/04/15 02:50:07;;;;;;;0.22;0.22;;;;;;;;;;4999551;28;20037;-76
2023/04/15 02:52:33;;;;;;;7.78;1.52;;;;;;;;;;4983238;28;20401;-76
2023/04/15 02:55:01;;;;;;;0.20;0.20;;;;;;;;;;5017354;28;20033;-75
2023/04/15 02:57:28;;;;;;;0.10;0.10;;;;;;;;;;4999598;28;20508;-77
2023/04/15 02:59:55;;;;;;;0.20;0.20;;;;;;;;;;4999512;28;20041;-76
2023/04/15 03:02:21;;;;;;;0.10;0.10;;;;;;;;;;4996221;28;20828;-77
2023/04/15 03:04:46;;;;;;;0.10;0.10;;;;;;;;;;4996012;28;20041;-76
2023/04/15 03:07:12;;;;;;;0.10;0.10;;;;;;;;;;5012813;28;20096;-76
2023/04/15 03:09:40;;;;;;;9.25;2.58;;;;;;;;;;4995536;28;20030;-76
2023/04/15 03:12:05;;;;;;;0.10;0.10;;;;;;;;;;4995542;28;20034;-77
2023/04/15 03:14:31;;;;;;;0.10;0.10;;;;;;;;;;4995203;28;20472;-74
2023/04/15 03:16:58;;;;;;;0.13;0.13;;;;;;;;;;4995204;28;20381;-73
2023/04/15 03:19:23;;;;;;;0.10;0.10;;;;;;;;;;4995526;28;20440;-75
2023/04/15 03:21:49;;;;;;;0.10;0.10;;;;;;;;;;4994220;28;20037;-76
2023/04/15 03:24:15;;;;;;;0.10;0.10;;;;;;;;;;4995859;28;20271;-75
2023/04/15 03:26:40;;;;;;;0.10;0.10;;;;;;;;;;4995438;28;20046;-75
2023/04/15 03:29:12;;;;;;;3.22;3.00;;;;;;;;;;4997294;28;20092;-75
2023/04/15 03:31:38;;;;;;;0.10;0.10;;;;;;;;;;4996020;28;20034;-75
2023/04/15 03:34:04;;;;;;;0.10;0.10;;;;;;;;;;5013190;28;20080;-75
2023/04/15 03:36:31;;;;;;;0.10;0.10;;;;;;;;;;5012824;28;20037;-75
2023/04/15 03:38:57;;;;;;;0.20;0.20;;;;;;;;;;5012868;28;20045;-75
2023/04/15 03:41:23;;;;;;;0.03;0.03;;;;;;;;;;4994961;28;20402;-75
2023/04/15 03:43:50;;;;;;;0.10;0.10;;;;;;;;;;4994993;28;20038;-75
2023/04/15 03:46:16;;;;;;;0.10;0.10;;;;;;;;;;4994945;28;20045;-75
2023/04/15 03:48:42;;;;;;;0.20;0.20;;;;;;;;;;5012794;28;20478;-75
2023/04/15 03:51:07;;;;;;;0.10;0.10;;;;;;;;;;5011749;28;20021;-76
2023/04/15 03:53:32;;;;;;;0.10;0.10;;;;;;;;;;5012344;28;20060;-75
2023/04/15 03:55:58;;;;;;;0.52;0.52;;;;;;;;;;4995249;28;20034;-74
2023/04/15 03:58:23;;;;;;;0.10;0.10;;;;;;;;;;4994655;28;20444;-76
2023/04/15 04:00:49;;;;;;;0.10;0.10;;;;;;;;;;4994259;28;20040;-74
2023/04/15 04:03:14;;;;;;;0.10;0.10;;;;;;;;;;4994839;28;20125;-77
2023/04/15 04:05:40;;;;;;;0.20;0.20;;;;;;;;;;5014415;28;20049;-74
2023/04/15 04:08:06;;;;;;;0.98;0.68;;;;;;;;;;4992919;28;20064;-74
2023/04/15 04:10:31;;;;;;;0.10;0.10;;;;;;;;;;4994601;28;20481;-74
2023/04/15 04:12:56;;;;;;;0.10;0.10;;;;;;;;;;4994443;28;20362;-74
2023/04/15 04:15:22;;;;;;;0.10;0.10;;;;;;;;;;4994020;28;20418;-74
2023/04/15 04:17:47;;;;;;;0.10;0.10;;;;;;;;;;4994222;28;20857;-74
2023/04/15 04:20:13;;;;;;;0.10;0.10;;;;;;;;;;4977510;28;20083;-74
2023/04/15 04:22:39;;;;;;;0.90;0.90;;;;;;;;;;4993933;28;20030;-76
2023/04/15 04:25:05;;;;;;;2.50;1.73;;;;;;;;;;5011520;28;20121;-76
2023/04/15 04:27:31;;;;;;;2.55;0.75;;;;;;;;;;4977729;28;20045;-75
2023/04/15 04:29:56;;;;;;;0.35;0.30;;;;;;;;;;5011334;28;20083;-73
2023/04/15 04:32:22;;;;;;;0.20;0.20;;;;;;;;;;5011556;28;20054;-74
2023/04/15 04:34:48;;;;;;;0.43;0.43;;;;;;;;;;4993054;28;20022;-74
2023/04/15 04:37:13;;;;;;;0.13;0.13;;;;;;;;;;4992240;28;20049;-74
2023/04/15 04:39:39;;;;;;;1.60;1.10;;;;;;;;;;5009839;28;20393;-73
2023/04/15 04:42:05;;;;;;;0.10;0.10;;;;;;;;;;5010190;28;20033;-77
2023/04/15 04:44:30;;;;;;;0.38;0.35;;;;;;;;;;4992169;28;20041;-75
2023/04/15 04:46:55;;;;;;;0.10;0.10;;;;;;;;;;5008567;28;20057;-76
2023/04/15 04:49:21;;;;;;;1.42;0.85;;;;;;;;;;4975893;28;20052;-75
2023/04/15 04:51:47;;;;;;;0.10;0.10;;;;;;;;;;4990714;28;20053;-74
2023/04/15 04:54:13;;;;;;;1.45;0.90;;;;;;;;;;5011092;28;20018;-77
2023/04/15 04:56:38;;;;;;;0.10;0.10;;;;;;;;;;4993365;28;20042;-76
2023/04/15 04:59:04;;;;;;;0.10;0.10;;;;;;;;;;4993199;28;20046;-77
2023/04/15 05:01:29;;;;;;;0.15;0.15;;;;;;;;;;5008674;28;20041;-77
2023/04/15 05:03:55;;;;;;;0.10;0.10;;;;;;;;;;4993339;28;20037;-76
2023/04/15 05:06:20;;;;;;;0.15;0.15;;;;;;;;;;4975997;28;20030;-77
2023/04/15 05:08:47;;;;;;;0.13;0.13;;;;;;;;;;4993239;28;20388;-76
2023/04/15 05:11:12;;;;;;;0.35;0.28;;;;;;;;;;4991706;28;20034;-76
2023/04/15 05:13:37;;;;;;;0.73;0.73;;;;;;;;;;4993069;28;20109;-76
2023/04/15 05:16:06;;;;;;;0.32;0.30;;;;;;;;;;4992951;28;20048;-76
2023/04/15 05:18:32;;;;;;;1.75;1.65;;;;;;;;;;4976633;28;20104;-77
2023/04/15 05:20:58;;;;;;;0.10;0.10;;;;;;;;;;4976585;28;20042;-77
2023/04/15 05:23:23;;;;;;;0.20;0.20;;;;;;;;;;4992642;28;20378;-75
2023/04/15 05:25:48;;;;;;;0.25;0.25;;;;;;;;;;4993101;28;20068;-75
2023/04/15 05:28:14;;;;;;;0.10;0.10;;;;;;;;;;5008148;28;20049;-76
2023/04/15 05:30:40;;;;;;;0.40;0.30;;;;;;;;;;4993049;28;20033;-74
2023/04/15 05:33:05;;;;;;;0.17;0.17;;;;;;;;;;5010325;28;20487;-74
2023/04/15 05:35:31;;;;;;;0.38;0.30;;;;;;;;;;4991898;28;20042;-75
2023/04/15 05:37:56;;;;;;;0.40;0.40;;;;;;;;;;5010845;28;20037;-74
2023/04/15 05:40:22;;;;;;;0.20;0.20;;;;;;;;;;5010864;28;20033;-76
2023/04/15 05:42:47;;;;;;;0.17;0.17;;;;;;;;;;4990608;28;20027;-75
2023/04/15 05:45:13;;;;;;;0.10;0.10;;;;;;;;;;4997808;28;20085;-75
2023/04/15 05:47:38;;;;;;;0.10;0.10;;;;;;;;;;4991824;28;20486;-75
2023/04/15 05:50:04;;;;;;;0.10;0.10;;;;;;;;;;4990422;28;20112;-76
2023/04/15 05:52:30;;;;;;;0.10;0.10;;;;;;;;;;4977322;28;20360;-76
2023/04/15 05:54:56;;;;;;;0.73;0.55;;;;;;;;;;4990521;28;20034;-75
2023/04/15 05:57:21;;;;;;;0.32;0.32;;;;;;;;;;4990175;28;20037;-76
2023/04/15 05:59:48;;;;;;;0.10;0.10;;;;;;;;;;4990200;28;20046;-76
2023/04/15 06:02:14;;;;;;;0.20;0.20;;;;;;;;;;4956936;28;20129;-75
2023/04/15 06:04:40;;;;;;;0.10;0.10;;;;;;;;;;4972867;28;20049;-77
2023/04/15 06:07:05;;;;;;;0.10;0.10;;;;;;;;;;4990181;28;20393;-78
2023/04/15 06:09:31;;;;;;;0.10;0.10;;;;;;;;;;4972776;28;20386;-75
2023/04/15 06:11:57;;;;;;;0.10;0.10;;;;;;;;;;4989229;28;20037;-75
2023/04/15 06:14:23;;;;;;;0.57;0.57;;;;;;;;;;4991920;28;20042;-75
2023/04/15 06:16:49;;;;;;;0.80;0.40;;;;;;;;;;4974750;28;20032;-76
2023/04/15 06:19:14;;;;;;;0.20;0.20;;;;;;;;;;4999314;28;20474;-78
2023/04/15 06:21:40;;;;;;;0.20;0.20;;;;;;;;;;4972930;28;20038;-77
2023/04/15 06:24:06;;;;;;;0.10;0.10;;;;;;;;;;4972819;28;20038;-77
2023/04/15 06:26:31;;;;;;;0.10;0.10;;;;;;;;;;4990280;28;20042;-77
2023/04/15 06:28:57;;;;;;;0.20;0.20;;;;;;;;;;4972992;28;20485;-76
2023/04/15 06:31:22;;;;;;;0.20;0.20;;;;;;;;;;4990332;28;20044;-76
2023/04/15 06:33:48;;;;;;;0.10;0.10;;;;;;;;;;4973005;28;20038;-75
2023/04/15 06:36:14;;;;;;;0.10;0.10;;;;;;;;;;4972323;28;20046;-76
2023/04/15 06:38:39;;;;;;;0.10;0.10;;;;;;;;;;4995498;28;20026;-76
2023/04/15 06:41:05;;;;;;;0.10;0.10;;;;;;;;;;5002082;28;20046;-77
2023/04/15 06:43:30;;;;;;;0.15;0.15;;;;;;;;;;5002523;28;20121;-76
2023/04/15 06:45:56;;;;;;;0.20;0.20;;;;;;;;;;5009638;28;20117;-76
2023/04/15 06:48:22;;;;;;;0.10;0.10;;;;;;;;;;5009337;28;20374;-76
2023/04/15 06:50:48;;;;;;;0.10;0.10;;;;;;;;;;5007784;28;20038;-77
2023/04/15 06:53:13;;;;;;;0.10;0.10;;;;;;;;;;4991749;28;20026;-76
2023/04/15 06:55:40;;;;;;;0.10;0.10;;;;;;;;;;5009452;28;20037;-75
2023/04/15 06:58:05;;;;;;;0.10;0.10;;;;;;;;;;5009815;28;20052;-75
2023/04/15 07:00:32;;;;;;;0.10;0.10;;;;;;;;;;4991729;28;20482;-76
2023/04/15 07:02:58;;;;;;;0.10;0.10;;;;;;;;;;4991852;28;20041;-75
2023/04/15 07:05:24;;;;;;;0.10;0.10;;;;;;;;;;5007688;28;20042;-76
2023/04/15 07:07:50;;;;;;;0.10;0.10;;;;;;;;;;4991583;28;20038;-76
2023/04/15 07:10:15;;;;;;;7.40;0.88;;;;;;;;;;5009521;28;20476;-77
2023/04/15 07:12:41;;;;;;;0.95;0.30;;;;;;;;;;4992041;28;20143;-75
2023/04/15 07:15:06;;;;;;;0.10;0.10;;;;;;;;;;5009118;28;20030;-76
2023/04/15 07:17:32;;;;;;;2.55;0.73;;;;;;;;;;4991354;28;20437;-76
2023/04/15 07:19:57;;;;;;;4.65;1.02;;;;;;;;;;5008762;28;20040;-75
2023/04/15 07:22:23;;;;;;;3.65;0.68;;;;;;;;;;5009168;28;20040;-74
2023/04/15 07:24:48;;;;;;;6.32;1.25;;;;;;;;;;5009740;28;20041;-76
2023/04/15 07:27:13;;;;;;;3.22;0.90;;;;;;;;;;4994872;28;20034;-77
2023/04/15 07:29:39;;;;;;;14.07;2.33;;;;;;;;;;4998703;28;20042;-75
2023/04/15 07:32:04;;;;;;;1.73;0.30;;;;;;;;;;4993113;28;20065;-75
2023/04/15 07:34:30;;;;;;;4.50;1.02;;;;;;;;;;4975218;28;20027;-78
2023/04/15 07:36:55;;;;;;;0.50;0.35;;;;;;;;;;4975559;28;20062;-76
2023/04/15 07:39:24;;;;;;;9.25;1.52;;;;;;;;;;4992812;28;20034;-75
2023/04/15 07:41:50;;;;;;;15.93;1.83;;;;;;;;;;4993212;28;20034;-75
2023/04/15 07:44:16;;;;;;;4.93;1.70;;;;;;;;;;4993141;28;20042;-75
2023/04/15 07:46:42;;;;;;;2.60;0.43;;;;;;;;;;4959412;28;20046;-75
2023/04/15 07:49:08;;;;;;;19.40;2.53;;;;;;;;;;4992860;28;20065;-74
2023/04/15 07:51:33;;;;;;;11.65;1.48;;;;;;;;;;5005552;28;20037;-70
2023/04/15 07:53:59;;;;;;;3.35;1.00;;;;;;;;;;5010787;28;20528;-70
2023/04/15 07:56:25;;;;;;;9.93;1.55;;;;;;;;;;4992098;28;20038;-71
2023/04/15 07:58:50;;;;;;;6.18;2.00;;;;;;;;;;5012327;28;20045;-71
2023/04/15 08:01:16;;;;;;;4.28;0.82;;;;;;;;;;5010871;28;20865;-70
2023/04/15 08:03:41;;;;;;;8.52;1.05;;;;;;;;;;5010782;28;20034;-71
2023/04/15 08:06:07;;;;;;;0.30;0.30;;;;;;;;;;4992534;28;20127;-72
2023/04/15 08:08:32;;;;;;;4.20;0.65;;;;;;;;;;4994177;28;20042;-72
2023/04/15 08:10:58;;;;;;;8.00;1.42;;;;;;;;;;4983632;28;20037;-71
2023/04/15 08:13:23;;;;;;;1.30;0.68;;;;;;;;;;5009172;28;20033;-72
2023/04/15 08:16:07;;;;;;;4.45;0.60;;;;;;;;;;4994765;28;20073;-73
2023/04/15 08:18:33;;;;;;;11.40;2.30;;;;;;;;;;5005477;28;20038;-71
2023/04/15 08:20:58;;;;;;;7.63;1.45;;;;;;;;;;4980085;28;20531;-72
2023/04/15 08:23:23;;;;;;;9.10;2.28;;;;;;;;;;5002795;28;20041;-72
2023/04/15 08:25:49;;;;;;;8.90;2.55;;;;;;;;;;4998429;28;20114;-71
2023/04/15 08:28:16;;;;;;;4.43;1.45;;;;;;;;;;4977156;28;20041;-72
2023/04/15 08:30:41;;;;;;;9.45;1.83;;;;;;;;;;5002168;28;20030;-71
2023/04/15 08:33:06;;;;;;;9.80;1.42;;;;;;;;;;4986090;28;20045;-71
2023/04/15 08:35:32;;;;;;;3.83;1.33;;;;;;;;;;5011185;28;20033;-72
2023/04/15 08:37:57;;;;;;;7.63;1.35;;;;;;;;;;5011041;28;20038;-71
2023/04/15 08:40:26;;;;;;;2.25;0.73;;;;;;;;;;5006210;28;20038;-72
2023/04/15 08:42:53;;;;;;;11.32;2.15;;;;;;;;;;5000892;28;20121;-70
2023/04/15 08:45:18;;;;;;;1.88;0.30;;;;;;;;;;4991272;28;20046;-71
2023/04/15 08:47:44;;;;;;;5.63;0.75;;;;;;;;;;4991482;28;20041;-70
2023/04/15 08:50:10;;;;;;;3.38;0.95;;;;;;;;;;4997908;28;20034;-71
2023/04/15 08:52:36;;;;;;;3.35;0.52;;;;;;;;;;4998872;28;20058;-71
2023/04/15 08:55:02;;;;;;;2.45;1.40;;;;;;;;;;4991748;28;20056;-74
2023/04/15 08:57:28;;;;;;;4.82;1.02;;;;;;;;;;4991923;28;20034;-71
2023/04/15 08:59:56;;;;;;;4.40;0.75;;;;;;;;;;4999323;28;20044;-71
2023/04/15 09:02:23;;;;;;;2.47;0.65;;;;;;;;;;5000443;28;20030;-72
2023/04/15 09:04:48;;;;;;;2.53;0.55;;;;;;;;;;4999972;28;20237;-70
2023/04/15 09:07:14;;;;;;;11.40;1.05;;;;;;;;;;4983811;28;20044;-72
2023/04/15 09:09:41;;;;;;;10.88;0.63;;;;;;;;;;5000286;28;20041;-71
2023/04/15 09:12:06;;;;;;;8.85;0.85;;;;;;;;;;5000145;28;20377;-70
2023/04/15 09:14:33;;;;;;;1.00;0.40;;;;;;;;;;5001261;28;20034;-70
2023/04/15 09:17:00;;;;;;;4.75;1.33;;;;;;;;;;5000046;28;20037;-70
2023/04/15 09:19:26;;;;;;;0.73;0.73;;;;;;;;;;5000065;28;20034;-70
2023/04/15 09:21:52;;;;;;;2.35;0.55;;;;;;;;;;5000907;28;20300;-70
2023/04/15 09:24:18;;;;;;;4.38;1.33;;;;;;;;;;4999675;28;20117;-70
2023/04/15 09:26:43;;;;;;;6.57;1.00;;;;;;;;;;4967363;28;20132;-71
2023/04/15 09:29:12;;;;;;;9.13;1.45;;;;;;;;;;5000618;28;20478;-70
2023/04/15 09:31:37;;;;;;;1.48;0.30;;;;;;;;;;4982120;28;20407;-70
2023/04/15 09:34:03;;;;;;;4.80;0.68;;;;;;;;;;5007804;28;20080;-71
2023/04/15 09:36:35;;;;;;;0.55;0.32;;;;;;;;;;4999803;28;20390;-70
2023/04/15 09:39:00;;;;;;;0.70;0.20;;;;;;;;;;4998997;28;20038;-71
2023/04/15 09:41:27;;;;;;;1.30;0.43;;;;;;;;;;5000310;28;20025;-70
2023/04/15 09:43:52;;;;;;;2.83;0.65;;;;;;;;;;5000394;28;20030;-70
2023/04/15 09:46:18;;;;;;;4.53;0.73;;;;;;;;;;4998602;28;20367;-70
2023/04/15 09:48:43;;;;;;;4.85;0.88;;;;;;;;;;4999912;28;20096;-70
2023/04/15 09:51:08;;;;;;;1.35;0.63;;;;;;;;;;4999788;28;20022;-70
2023/04/15 09:53:35;;;;;;;3.28;0.60;;;;;;;;;;5005648;28;20049;-70
2023/04/15 09:56:01;;;;;;;4.35;0.50;;;;;;;;;;4964656;28;20030;-70
2023/04/15 09:58:33;;;;;;;2.28;0.70;;;;;;;;;;5007159;28;20034;-70
2023/04/15 10:01:00;;;;;;;4.65;0.93;;;;;;;;;;5008676;28;20030;-71
2023/04/15 10:03:27;;;;;;;0.30;0.30;;;;;;;;;;4988705;28;20426;-70
2023/04/15 10:05:53;;;;;;;2.33;0.45;;;;;;;;;;4990631;28;20363;-70
2023/04/15 10:08:20;;;;;;;6.55;0.60;;;;;;;;;;4990185;28;20455;-70
2023/04/15 10:10:46;;;;;;;3.22;0.60;;;;;;;;;;4990352;28;20040;-70
2023/04/15 10:13:13;;;;;;;8.30;1.10;;;;;;;;;;4990052;28;20486;-70
2023/04/15 10:15:40;;;;;;;8.50;1.73;;;;;;;;;;5002954;28;20039;-69
2023/04/15 10:18:07;;;;;;;2.20;0.50;;;;;;;;;;4992128;28;20045;-70
2023/04/15 10:20:33;;;;;;;4.53;0.65;;;;;;;;;;5008915;28;20522;-68
2023/04/15 10:22:59;;;;;;;2.20;0.30;;;;;;;;;;5009915;28;20026;-69
2023/04/15 10:25:25;;;;;;;1.63;0.40;;;;;;;;;;4991957;28;20410;-69
2023/04/15 10:27:51;;;;;;;2.05;0.73;;;;;;;;;;4992155;28;20076;-68
2023/04/15 10:30:17;;;;;;;5.10;1.27;;;;;;;;;;5008200;28;20034;-69
2023/04/15 10:32:43;;;;;;;3.45;0.47;;;;;;;;;;5008898;28;20536;-69
2023/04/15 10:35:10;;;;;;;4.68;0.75;;;;;;;;;;5007584;28;20041;-70
2023/04/15 10:37:36;;;;;;;0.52;0.30;;;;;;;;;;5008229;28;20045;-70
2023/04/15 10:40:22;;;;;;;0.90;0.22;;;;;;;;;;5009936;28;20061;-70
2023/04/15 10:42:47;;;;;;;3.63;0.57;;;;;;;;;;5008779;28;20107;-70
2023/04/15 10:45:16;;;;;;;16.77;1.13;;;;;;;;;;5009548;28;20413;-70
2023/04/15 10:47:42;;;;;;;4.20;0.65;;;;;;;;;;5009712;28;20037;-70
2023/04/15 10:50:08;;;;;;;1.10;0.32;;;;;;;;;;5009320;28;20029;-70
2023/04/15 10:52:33;;;;;;;0.10;0.10;;;;;;;;;;5009560;28;20042;-70
2023/04/15 10:55:15;;;;;;;0.98;0.30;;;;;;;;;;5009332;28;20385;-70
2023/04/15 10:57:41;;;;;;;0.45;0.38;;;;;;;;;;5009357;28;20037;-70
2023/04/15 11:00:16;;;;;;;0.30;0.30;;;;;;;;;;5011493;28;20038;-70
2023/04/15 11:02:46;;;;;;;7.88;1.17;;;;;;;;;;5013222;28;20026;-70
2023/04/15 11:05:11;;;;;;;;;;;;;;;;;;5013367;28;20038;-70
2023/04/15 11:07:47;;;;;;;1.83;0.67;;;;;;;;;;5012121;28;19917;-70
2023/04/15 11:10:12;;;;;;;6.30;0.70;;;;;;;;;;5012257;28;20360;-70
2023/04/15 11:12:38;;;;;;;5.68;0.82;;;;;;;;;;5013157;28;20137;-70
2023/04/15 11:15:22;;;;;;;6.10;1.40;;;;;;;;;;5012927;28;20033;-70
2023/04/15 11:17:47;;;;;;;4.57;0.85;;;;;;;;;;5012632;28;20406;-68
2023/04/15 11:20:16;;;;;;;1.65;0.50;;;;;;;;;;4995114;28;20033;-68
2023/04/15 11:22:54;;;;;;;4.35;0.77;;;;;;;;;;5009993;28;20068;-69
2023/04/15 11:25:30;;;;;;;4.63;1.23;;;;;;;;;;5010196;28;20037;-69
2023/04/15 11:27:56;;;;;;;9.55;1.60;;;;;;;;;;5010570;28;20096;-69
2023/04/15 11:30:23;;;;;;;1.83;0.40;;;;;;;;;;5012266;28;20026;-69
2023/04/15 11:32:50;;;;;;;5.75;1.38;;;;;;;;;;5012666;28;20034;-68
2023/04/15 11:35:17;;;;;;;3.38;0.45;;;;;;;;;;5012273;28;20088;-68
2023/04/15 11:37:43;;;;;;;3.10;0.73;;;;;;;;;;5012830;28;20077;-68
2023/04/15 11:40:09;;;;;;;4.15;0.90;;;;;;;;;;5012578;28;20500;-70
2023/04/15 11:42:34;;;;;;;2.42;0.77;;;;;;;;;;5012619;28;20173;-70
2023/04/15 11:45:15;;;;;;;3.90;0.98;;;;;;;;;;5012588;28;20042;-70
2023/04/15 11:47:41;;;;;;;2.50;0.38;;;;;;;;;;5012254;28;20041;-70
2023/04/15 11:50:19;;;;;;;8.30;1.08;;;;;;;;;;5012422;28;20117;-71
2023/04/15 11:52:58;;;;;;;3.25;0.82;;;;;;;;;;5012889;28;20087;-70
2023/04/15 11:55:23;;;;;;;3.83;0.47;;;;;;;;;;5012196;28;20053;-69
2023/04/15 11:57:50;;;;;;;2.60;0.75;;;;;;;;;;5012729;28;20030;-70
2023/04/15 12:00:16;;;;;;;0.10;0.10;;;;;;;;;;5011926;28;20493;-70
2023/04/15 12:02:42;;;;;;;2.63;1.25;;;;;;;;;;5012364;28;20063;-71
2023/04/15 12:05:08;;;;;;;2.75;0.28;;;;;;;;;;5011924;28;20045;-70
2023/04/15 12:07:53;;;;;;;1.30;0.60;;;;;;;;;;5012081;28;20513;-70
2023/04/15 12:10:19;;;;;;;2.05;0.55;;;;;;;;;;5011068;28;20168;-70
2023/04/15 12:12:47;;;;;;;0.43;0.40;;;;;;;;;;5011202;28;20463;-70
2023/04/15 12:15:13;;;;;;;5.40;0.60;;;;;;;;;;5011590;28;20041;-69
2023/04/15 12:17:40;;;;;;;2.03;0.60;;;;;;;;;;5011606;28;20056;-70
2023/04/15 12:20:06;;;;;;;0.80;0.47;;;;;;;;;;5011532;28;20088;-69
2023/04/15 12:22:36;;;;;;;7.25;0.63;;;;;;;;;;4994384;28;20382;-69
2023/04/15 12:25:01;;;;;;;4.78;0.75;;;;;;;;;;5011791;28;20052;-70
2023/04/15 12:27:27;;;;;;;4.72;0.60;;;;;;;;;;5011477;28;20125;-69
2023/04/15 12:30:02;;;;;;;2.50;0.50;;;;;;;;;;5011395;28;20033;-70
2023/04/15 12:32:27;;;;;;;3.42;0.40;;;;;;;;;;5011551;28;20517;-69
2023/04/15 12:34:54;;;;;;;0.98;0.40;;;;;;;;;;5011427;28;20069;-69
2023/04/15 12:37:19;;;;;;;3.63;0.32;;;;;;;;;;5011236;28;20026;-70
2023/04/15 12:39:47;;;;;;;6.53;0.68;;;;;;;;;;5011094;28;20045;-69
2023/04/15 12:42:13;;;;;;;3.83;0.40;;;;;;;;;;5011564;28;20935;-68
2023/04/15 12:44:39;;;;;;;3.40;0.40;;;;;;;;;;5011591;28;20064;-69
2023/04/15 12:47:06;;;;;;;5.05;1.27;;;;;;;;;;5010695;28;20133;-68
2023/04/15 12:49:32;;;;;;;0.70;0.30;;;;;;;;;;5011083;28;20053;-67
2023/04/15 12:51:59;;;;;;;3.90;1.10;;;;;;;;;;4993800;28;20042;-69
2023/04/15 12:54:25;;;;;;;5.22;0.52;;;;;;;;;;5011123;28;20038;-69
2023/04/15 12:56:51;;;;;;;0.10;0.10;;;;;;;;;;5010942;28;20034;-69
2023/04/15 12:59:17;;;;;;;1.08;0.40;;;;;;;;;;5010773;28;20041;-70
2023/04/15 13:01:43;;;;;;;2.05;0.50;;;;;;;;;;5011189;28;20378;-68
2023/04/15 13:04:08;;;;;;;1.73;0.55;;;;;;;;;;5011042;28;20041;-70
2023/04/15 13:06:34;;;;;;;25.02;2.38;;;;;;;;;;5010903;28;20486;-70
2023/04/15 13:09:00;;;;;;;1.70;0.45;;;;;;;;;;4993224;28;20048;-71
2023/04/15 13:11:26;;;;;;;4.15;0.73;;;;;;;;;;5011169;28;20038;-69
2023/04/15 13:13:51;;;;;;;0.10;0.10;;;;;;;;;;5011058;28;20465;-69
2023/04/15 13:16:17;;;;;;;2.97;0.65;;;;;;;;;;5010948;28;20041;-70
2023/04/15 13:18:44;;;;;;;2.08;0.38;;;;;;;;;;5010988;28;20124;-69
2023/04/15 13:21:10;;;;;;;1.58;0.75;;;;;;;;;;5010554;28;20363;-69
2023/04/15 13:23:35;;;;;;;1.95;0.60;;;;;;;;;;5010270;28;20038;-70
2023/04/15 13:26:01;;;;;;;5.72;1.80;;;;;;;;;;5010508;28;20096;-71
2023/04/15 13:28:26;;;;;;;0.63;0.20;;;;;;;;;;5010366;28;20120;-70
2023/04/15 13:30:52;;;;;;;4.25;0.63;;;;;;;;;;5010468;28;20497;-70
2023/04/15 13:33:17;;;;;;;8.45;0.95;;;;;;;;;;5010279;28;20033;-70
2023/04/15 13:35:42;;;;;;;1.35;0.65;;;;;;;;;;5010318;28;20120;-70
2023/04/15 13:38:08;;;;;;;1.00;0.28;;;;;;;;;;5009384;28;20110;-70
2023/04/15 13:40:33;;;;;;;1.83;0.40;;;;;;;;;;5009977;28;20034;-70
2023/04/15 13:42:59;;;;;;;1.90;0.50;;;;;;;;;;5010494;28;20105;-70
2023/04/15 13:45:25;;;;;;;1.33;0.40;;;;;;;;;;5010217;28;20463;-71
2023/04/15 13:47:50;;;;;;;0.38;0.28;;;;;;;;;;5010562;28;20076;-70
2023/04/15 13:50:16;;;;;;;0.10;0.10;;;;;;;;;;5010357;28;20048;-69
2023/04/15 13:52:41;;;;;;;2.10;0.43;;;;;;;;;;5008556;28;20053;-69
2023/04/15 13:55:07;;;;;;;1.02;0.20;;;;;;;;;;5009504;28;20070;-69
2023/04/15 13:57:32;;;;;;;0.90;0.63;;;;;;;;;;5007273;28;20085;-69
2023/04/15 13:59:58;;;;;;;1.08;0.57;;;;;;;;;;5007744;28;20034;-68
2023/04/15 14:02:23;;;;;;;2.35;0.90;;;;;;;;;;5008165;28;20096;-71
2023/04/15 14:04:49;;;;;;;2.30;0.85;;;;;;;;;;5008177;28;20050;-70
2023/04/15 14:07:15;;;;;;;11.23;1.30;;;;;;;;;;5007618;28;20045;-71
2023/04/15 14:09:40;;;;;;;3.38;0.88;;;;;;;;;;4989947;28;20069;-70
2023/04/15 14:12:05;;;;;;;1.25;0.52;;;;;;;;;;5006631;28;20514;-69
2023/04/15 14:14:31;;;;;;;2.08;0.32;;;;;;;;;;5005285;28;20145;-70
2023/04/15 14:16:57;;;;;;;3.30;0.55;;;;;;;;;;4988340;28;20049;-69
2023/04/15 14:19:23;;;;;;;0.28;0.28;;;;;;;;;;5005127;28;20049;-69
2023/04/15 14:21:48;;;;;;;2.28;0.60;;;;;;;;;;5004446;28;20033;-71
2023/04/15 14:24:14;;;;;;;3.60;0.40;;;;;;;;;;5004205;28;20658;-70
2023/04/15 14:26:39;;;;;;;0.65;0.17;;;;;;;;;;5004072;28;20041;-70
2023/04/15 14:29:05;;;;;;;1.70;0.30;;;;;;;;;;5004467;28;20074;-68
2023/04/15 14:31:30;;;;;;;1.17;1.02;;;;;;;;;;5005503;28;20057;-68
2023/04/15 14:33:56;;;;;;;0.93;0.75;;;;;;;;;;5005120;28;20041;-68
2023/04/15 14:36:22;;;;;;;2.05;0.40;;;;;;;;;;5005844;28;20394;-67
2023/04/15 14:38:47;;;;;;;10.90;0.63;;;;;;;;;;5005663;28;20052;-68